createdAt,value
2019-05-02T00:00:11.532Z,10.30
2019-05-02T00:02:40.632Z,10.30
2019-05-02T00:05:09.671Z,10.20
2019-05-02T00:07:39.805Z,10.20
2019-05-02T00:10:10.042Z,10.20
2019-05-02T00:12:38.651Z,10.10
2019-05-02T00:15:10.423Z,10.10
2019-05-02T00:17:39.420Z,10.10
2019-05-02T00:20:09.545Z,10.10
2019-05-02T00:22:38.202Z,10.10
2019-05-02T00:25:11.059Z,10.00
2019-05-02T00:27:38.874Z,10.10
2019-05-02T00:30:08.941Z,9.90
2019-05-02T00:32:37.594Z,9.90
2019-05-02T00:35:07.115Z,9.70
2019-05-02T00:37:35.783Z,9.70
2019-05-02T00:40:06.249Z,9.60
2019-05-02T00:42:34.853Z,9.60
2019-05-02T00:45:04.652Z,9.50
2019-05-02T00:47:33.257Z,9.50
2019-05-02T00:50:06.203Z,9.50
2019-05-02T00:52:32.928Z,9.50
2019-05-02T00:55:02.946Z,9.40
2019-05-02T00:57:31.592Z,9.40
2019-05-02T01:00:00.205Z,9.30
2019-05-02T01:02:28.941Z,9.40
2019-05-02T01:04:59.237Z,9.30
2019-05-02T01:07:28.090Z,9.30
2019-05-02T01:09:56.742Z,9.40
2019-05-02T01:12:26.817Z,9.30
2019-05-02T01:14:55.732Z,9.30
2019-05-02T01:17:26.096Z,9.20
2019-05-02T01:19:54.719Z,9.20
2019-05-02T01:22:23.326Z,9.20
2019-05-02T01:24:51.987Z,9.20
2019-05-02T01:27:20.599Z,9.20
2019-05-02T01:29:49.260Z,9.30
2019-05-02T01:32:17.945Z,9.20
2019-05-02T01:34:49.095Z,9.20
2019-05-02T01:37:20.830Z,9.10
2019-05-02T01:39:47.430Z,9.20
2019-05-02T01:42:16.034Z,9.20
2019-05-02T01:44:44.701Z,9.30
2019-05-02T01:47:13.308Z,9.20
2019-05-02T01:49:42.052Z,9.20
2019-05-02T01:52:10.795Z,9.20
2019-05-02T01:54:40.708Z,9.20
2019-05-02T01:57:10.136Z,9.30
2019-05-02T01:59:38.896Z,9.30
2019-05-02T02:02:07.509Z,9.30
2019-05-02T02:04:36.611Z,9.30
2019-05-02T02:07:05.462Z,9.30
2019-05-02T02:09:34.102Z,9.40
2019-05-02T02:12:05.075Z,9.30
2019-05-02T02:14:33.368Z,9.30
2019-05-02T02:17:02.028Z,9.20
2019-05-02T02:19:34.767Z,9.20
2019-05-02T02:22:02.957Z,9.20
2019-05-02T02:24:31.366Z,9.20
2019-05-02T02:26:59.977Z,9.20
2019-05-02T02:29:28.634Z,9.20
2019-05-02T02:31:57.254Z,9.10
2019-05-02T02:34:29.048Z,9.10
2019-05-02T02:36:56.297Z,9.10
2019-05-02T02:39:24.917Z,9.10
2019-05-02T02:41:54.219Z,9.20
2019-05-02T02:44:23.072Z,9.10
2019-05-02T02:46:51.735Z,9.00
2019-05-02T02:49:24.373Z,9.00
2019-05-02T02:51:50.739Z,9.00
2019-05-02T02:54:19.398Z,9.00
2019-05-02T02:56:48.128Z,9.10
2019-05-02T02:59:25.563Z,9.10
2019-05-02T03:01:47.121Z,9.10
2019-05-02T03:04:15.794Z,9.00
2019-05-02T03:06:46.953Z,9.00
2019-05-02T03:09:20.155Z,9.00
2019-05-02T03:11:45.179Z,9.00
2019-05-02T03:14:13.843Z,8.90
2019-05-02T03:16:46.928Z,8.80
2019-05-02T03:19:20.312Z,8.80
2019-05-02T03:21:43.581Z,8.70
2019-05-02T03:24:12.266Z,8.70
2019-05-02T03:26:41.087Z,8.80
2019-05-02T03:29:09.965Z,8.70
2019-05-02T03:31:38.787Z,8.70
2019-05-02T03:34:07.490Z,8.80
2019-05-02T03:36:37.333Z,8.70
2019-05-02T03:39:13.919Z,8.80
2019-05-02T03:41:37.218Z,8.90
2019-05-02T03:44:11.006Z,8.90
2019-05-02T03:46:36.434Z,9.00
2019-05-02T03:49:07.218Z,9.10
2019-05-02T03:51:35.695Z,9.10
2019-05-02T03:54:09.854Z,9.00
2019-05-02T03:56:35.152Z,9.00
2019-05-02T03:59:04.420Z,9.00
2019-05-02T04:01:34.866Z,9.00
2019-05-02T04:04:04.269Z,9.00
2019-05-02T04:06:32.968Z,8.90
2019-05-02T04:09:02.665Z,8.80
2019-05-02T04:11:39.125Z,8.70
2019-05-02T04:14:15.219Z,8.60
2019-05-02T04:16:33.942Z,8.60
2019-05-02T04:19:02.746Z,8.70
2019-05-02T04:21:31.749Z,8.60
2019-05-02T04:24:13.008Z,8.50
2019-05-02T04:26:32.609Z,8.60
2019-05-02T04:29:01.332Z,8.60
2019-05-02T04:31:31.942Z,8.50
2019-05-02T04:34:00.420Z,8.50
2019-05-02T04:36:29.086Z,8.40
2019-05-02T04:38:59.537Z,8.60
2019-05-02T04:41:30.350Z,8.60
2019-05-02T04:44:01.472Z,8.50
2019-05-02T04:46:31.184Z,8.50
2019-05-02T04:48:59.343Z,8.50
2019-05-02T04:51:31.787Z,8.50
2019-05-02T04:53:58.907Z,8.50
2019-05-02T04:56:28.413Z,8.60
2019-05-02T04:59:01.378Z,8.60
2019-05-02T05:01:33.149Z,8.60
2019-05-02T05:04:02.833Z,8.70
2019-05-02T05:06:28.307Z,8.70
2019-05-02T05:08:58.449Z,8.80
2019-05-02T05:11:27.497Z,8.80
2019-05-02T05:13:57.673Z,8.80
2019-05-02T05:16:28.502Z,8.90
2019-05-02T05:18:57.845Z,8.90
2019-05-02T05:21:28.571Z,9.00
2019-05-02T05:24:01.325Z,9.00
2019-05-02T05:26:27.726Z,9.10
2019-05-02T05:28:58.310Z,9.20
2019-05-02T05:31:29.172Z,9.10
2019-05-02T05:33:57.902Z,9.20
2019-05-02T05:36:32.506Z,9.20
2019-05-02T05:38:58.287Z,9.10
2019-05-02T05:41:27.823Z,9.20
2019-05-02T05:43:57.391Z,9.20
2019-05-02T05:46:28.079Z,9.20
2019-05-02T05:48:58.246Z,9.20
2019-05-02T05:51:27.719Z,9.20
2019-05-02T05:54:02.656Z,9.30
2019-05-02T05:56:27.941Z,9.30
2019-05-02T05:58:59.250Z,9.30
2019-05-02T06:01:33.985Z,9.30
2019-05-02T06:03:58.275Z,9.20
2019-05-02T06:06:27.392Z,9.30
2019-05-02T06:08:56.305Z,9.40
2019-05-02T06:11:24.910Z,9.40
2019-05-02T06:13:53.569Z,9.40
2019-05-02T06:16:22.236Z,9.40
2019-05-02T06:18:50.849Z,9.30
2019-05-02T06:21:19.450Z,9.40
2019-05-02T06:23:48.256Z,9.30
2019-05-02T06:26:16.869Z,9.30
2019-05-02T06:28:45.530Z,9.40
2019-05-02T06:31:16.958Z,9.50
2019-05-02T06:33:44.645Z,9.50
2019-05-02T06:36:13.248Z,9.50
2019-05-02T06:38:42.014Z,9.50
2019-05-02T06:41:10.671Z,9.80
2019-05-02T06:43:41.137Z,9.70
2019-05-02T06:46:16.347Z,9.60
2019-05-02T06:48:40.151Z,9.80
2019-05-02T06:51:10.877Z,9.80
2019-05-02T06:53:41.412Z,9.70
2019-05-02T06:56:12.666Z,9.70
2019-05-02T06:58:42.089Z,9.80
2019-05-02T07:01:10.352Z,9.80
2019-05-02T07:03:41.441Z,9.90
2019-05-02T07:06:09.352Z,10.10
2019-05-02T07:08:37.965Z,10.00
2019-05-02T07:11:06.627Z,9.90
2019-05-02T07:13:36.153Z,10.00
2019-05-02T07:16:10.386Z,10.20
2019-05-02T07:18:36.090Z,10.20
2019-05-02T07:21:04.892Z,10.30
2019-05-02T07:23:33.520Z,10.30
2019-05-02T07:26:02.188Z,10.30
2019-05-02T07:28:30.855Z,10.30
2019-05-02T07:30:59.689Z,10.30
2019-05-02T07:33:32.506Z,10.30
2019-05-02T07:36:00.049Z,10.40
2019-05-02T07:38:28.984Z,10.40
2019-05-02T07:40:57.653Z,10.40
2019-05-02T07:43:26.958Z,10.50
2019-05-02T07:45:55.689Z,10.50
2019-05-02T07:48:24.304Z,10.70
2019-05-02T07:50:53.374Z,10.70
2019-05-02T07:53:22.502Z,10.60
2019-05-02T07:55:51.119Z,10.50
2019-05-02T07:58:19.774Z,10.50
2019-05-02T08:00:48.383Z,10.60
2019-05-02T08:03:17.048Z,10.50
2019-05-02T08:05:45.659Z,10.60
2019-05-02T08:08:14.321Z,10.60
2019-05-02T08:10:43.066Z,10.60
2019-05-02T08:13:12.135Z,10.60
2019-05-02T08:15:45.572Z,10.60
2019-05-02T08:18:12.404Z,10.60
2019-05-02T08:20:41.086Z,10.70
2019-05-02T08:23:09.774Z,10.60
2019-05-02T08:25:41.433Z,10.60
2019-05-02T08:28:10.182Z,10.60
2019-05-02T08:30:40.564Z,10.70
2019-05-02T08:33:09.650Z,10.60
2019-05-02T08:35:38.331Z,10.70
2019-05-02T08:38:06.986Z,10.70
2019-05-02T08:40:35.602Z,10.80
2019-05-02T08:43:09.269Z,10.80
2019-05-02T08:45:38.282Z,10.80
2019-05-02T08:48:06.511Z,10.80
2019-05-02T08:50:35.713Z,10.90
2019-05-02T08:53:04.631Z,10.90
2019-05-02T08:55:34.571Z,11.00
2019-05-02T08:58:06.766Z,11.10
2019-05-02T09:00:37.551Z,11.10
2019-05-02T09:03:04.766Z,11.20
2019-05-02T09:05:36.359Z,11.20
2019-05-02T09:08:04.044Z,11.40
2019-05-02T09:10:36.887Z,11.40
2019-05-02T09:13:03.226Z,11.40
2019-05-02T09:15:34.979Z,11.60
2019-05-02T09:18:02.993Z,11.80
2019-05-02T09:20:31.988Z,11.70
2019-05-02T09:23:01.750Z,11.70
2019-05-02T09:25:32.387Z,11.80
2019-05-02T09:28:01.831Z,11.90
2019-05-02T09:30:32.570Z,12.00
2019-05-02T09:33:04.852Z,11.90
2019-05-02T09:35:32.836Z,11.90
2019-05-02T09:38:01.856Z,12.10
2019-05-02T09:40:31.881Z,12.30
2019-05-02T09:43:02.745Z,12.40
2019-05-02T09:45:35.447Z,12.50
2019-05-02T09:48:07.610Z,12.40
2019-05-02T09:50:34.814Z,12.40
2019-05-02T09:53:03.296Z,12.40
2019-05-02T09:55:32.039Z,12.40
2019-05-02T09:58:02.744Z,12.30
2019-05-02T10:00:36.066Z,12.40
2019-05-02T10:03:02.779Z,12.50
2019-05-02T10:05:32.196Z,12.50
2019-05-02T10:08:03.091Z,12.50
2019-05-02T10:10:32.447Z,12.50
2019-05-02T10:13:02.761Z,12.50
2019-05-02T10:15:32.696Z,12.50
2019-05-02T10:18:11.011Z,12.50
2019-05-02T10:20:36.163Z,12.70
2019-05-02T10:23:03.297Z,12.60
2019-05-02T10:25:38.666Z,12.60
2019-05-02T10:28:03.046Z,12.40
2019-05-02T10:30:35.500Z,12.40
2019-05-02T10:33:02.646Z,12.50
2019-05-02T10:35:37.251Z,12.60
2019-05-02T10:38:02.527Z,12.60
2019-05-02T10:40:32.196Z,12.70
2019-05-02T10:43:02.897Z,12.70
2019-05-02T10:45:32.164Z,12.50
2019-05-02T10:48:02.268Z,12.60
2019-05-02T10:50:32.890Z,12.60
2019-05-02T10:53:03.510Z,12.60
2019-05-02T10:55:33.242Z,12.60
2019-05-02T10:58:02.154Z,12.70
2019-05-02T11:00:32.461Z,12.70
2019-05-02T11:03:02.650Z,12.50
2019-05-02T11:05:31.668Z,12.60
2019-05-02T11:08:04.690Z,12.60
2019-05-02T11:10:32.311Z,12.70
2019-05-02T11:13:01.902Z,12.60
2019-05-02T11:15:32.544Z,12.70
2019-05-02T11:18:02.293Z,12.90
2019-05-02T11:20:31.905Z,12.90
2019-05-02T11:23:02.190Z,13.00
2019-05-02T11:25:31.949Z,12.90
2019-05-02T11:28:02.879Z,12.90
2019-05-02T11:30:31.960Z,12.90
2019-05-02T11:33:02.882Z,12.80
2019-05-02T11:35:31.855Z,12.80
2019-05-02T11:38:02.503Z,12.80
2019-05-02T11:40:32.185Z,12.90
2019-05-02T11:43:02.868Z,12.90
2019-05-02T11:45:32.353Z,12.90
2019-05-02T11:48:08.938Z,13.00
2019-05-02T11:50:35.336Z,13.10
2019-05-02T11:53:02.877Z,13.30
2019-05-02T11:55:32.078Z,13.30
2019-05-02T11:58:07.917Z,13.10
2019-05-02T12:00:32.364Z,13.00
2019-05-02T12:03:02.195Z,13.00
2019-05-02T12:05:35.561Z,13.30
2019-05-02T12:08:07.805Z,13.30
2019-05-02T12:10:32.979Z,13.50
2019-05-02T12:13:02.251Z,13.40
2019-05-02T12:15:32.383Z,13.20
2019-05-02T12:18:02.529Z,13.30
2019-05-02T12:20:35.284Z,13.20
2019-05-02T12:23:02.099Z,13.30
2019-05-02T12:25:32.772Z,13.30
2019-05-02T12:28:02.316Z,13.30
2019-05-02T12:30:34.147Z,13.50
2019-05-02T12:33:02.507Z,13.40
2019-05-02T12:35:32.213Z,13.40
2019-05-02T12:38:02.703Z,13.50
2019-05-02T12:40:32.563Z,13.50
2019-05-02T12:43:02.433Z,13.80
2019-05-02T12:45:33.590Z,13.80
2019-05-02T12:48:02.424Z,13.60
2019-05-02T12:50:32.191Z,13.50
2019-05-02T12:53:02.813Z,13.50
2019-05-02T12:55:32.584Z,13.60
2019-05-02T12:58:03.115Z,13.50
2019-05-02T13:00:32.135Z,13.50
2019-05-02T13:03:01.977Z,13.70
2019-05-02T13:05:31.783Z,13.80
2019-05-02T13:08:02.427Z,13.90
2019-05-02T13:10:32.660Z,13.90
2019-05-02T13:13:02.828Z,13.90
2019-05-02T13:15:32.929Z,14.20
2019-05-02T13:18:02.983Z,14.20
2019-05-02T13:20:36.585Z,14.40
2019-05-02T13:23:06.632Z,14.20
2019-05-02T13:25:36.961Z,14.00
2019-05-02T13:28:05.949Z,14.10
2019-05-02T13:30:42.929Z,14.10
2019-05-02T13:33:05.334Z,14.00
2019-05-02T13:35:34.501Z,14.10
2019-05-02T13:38:03.565Z,13.90
2019-05-02T13:40:33.512Z,14.00
2019-05-02T13:43:02.176Z,14.00
2019-05-02T13:45:32.405Z,13.90
2019-05-02T13:48:02.792Z,13.80
2019-05-02T13:50:31.781Z,13.80
2019-05-02T13:53:02.416Z,13.80
2019-05-02T13:55:31.761Z,13.90
2019-05-02T13:58:02.321Z,14.10
2019-05-02T14:00:31.935Z,14.20
2019-05-02T14:03:02.867Z,14.20
2019-05-02T14:05:31.850Z,14.10
2019-05-02T14:08:01.792Z,14.10
2019-05-02T14:10:33.623Z,13.90
2019-05-02T14:13:03.045Z,14.10
2019-05-02T14:15:32.390Z,14.00
2019-05-02T14:18:02.464Z,14.00
2019-05-02T14:20:33.047Z,14.00
2019-05-02T14:23:02.285Z,13.90
2019-05-02T14:25:32.134Z,14.00
2019-05-02T14:28:02.998Z,14.20
2019-05-02T14:30:39.419Z,14.30
2019-05-02T14:33:02.436Z,14.30
2019-05-02T14:35:32.644Z,14.40
2019-05-02T14:38:02.030Z,15.00
2019-05-02T14:40:31.913Z,15.30
2019-05-02T14:43:03.384Z,16.30
2019-05-02T14:45:33.421Z,17.30
2019-05-02T14:48:17.890Z,16.90
2019-05-02T14:50:32.146Z,16.80
2019-05-02T14:53:02.734Z,16.60
2019-05-02T14:55:32.551Z,16.00
2019-05-02T14:58:05.645Z,15.70
2019-05-02T15:00:39.467Z,15.60
2019-05-02T15:03:03.339Z,15.10
2019-05-02T15:05:32.639Z,14.90
2019-05-02T15:08:06.553Z,14.90
2019-05-02T15:10:35.993Z,14.70
2019-05-02T15:13:03.943Z,14.60
2019-05-02T15:15:40.500Z,14.70
2019-05-02T15:18:03.163Z,14.60
2019-05-02T15:20:38.723Z,14.60
2019-05-02T15:23:02.622Z,14.90
2019-05-02T15:25:31.933Z,14.90
2019-05-02T15:28:02.470Z,14.90
2019-05-02T15:30:31.178Z,15.10
2019-05-02T15:32:59.796Z,15.00
2019-05-02T15:35:28.742Z,14.90
2019-05-02T15:38:02.571Z,15.00
2019-05-02T15:43:04.497Z,14.80
2019-05-02T15:45:27.924Z,14.60
2019-05-02T15:47:56.585Z,14.50
2019-05-02T15:50:25.861Z,14.60
2019-05-02T15:52:57.295Z,14.60
2019-05-02T15:55:25.107Z,14.60
2019-05-02T15:57:53.889Z,14.40
2019-05-02T16:00:25.798Z,14.20
2019-05-02T16:02:56.417Z,14.30
2019-05-02T16:05:25.125Z,14.30
2019-05-02T16:08:05.481Z,14.40
2019-05-02T16:10:24.130Z,14.50
2019-05-02T16:12:52.810Z,14.50
2019-05-02T16:15:26.235Z,14.60
2019-05-02T16:17:52.266Z,14.60
2019-05-02T16:20:21.383Z,14.60
2019-05-02T16:22:50.542Z,14.80
2019-05-02T16:25:24.576Z,14.70
2019-05-02T16:27:52.745Z,14.70
2019-05-02T16:30:23.913Z,14.70
2019-05-02T16:32:52.754Z,14.70
2019-05-02T16:35:22.228Z,14.70
2019-05-02T16:37:52.263Z,14.60
2019-05-02T16:40:30.080Z,14.60
2019-05-02T16:42:54.132Z,14.60
2019-05-02T16:45:23.142Z,14.50
2019-05-02T16:47:58.667Z,14.50
2019-05-02T16:50:23.005Z,14.60
2019-05-02T16:52:53.179Z,14.50
2019-05-02T16:55:26.431Z,14.50
2019-05-02T16:57:56.816Z,14.40
2019-05-02T17:00:25.255Z,14.50
2019-05-02T17:02:54.943Z,14.40
2019-05-02T17:05:23.848Z,14.40
2019-05-02T17:07:52.850Z,14.40
2019-05-02T17:10:21.874Z,14.40
2019-05-02T17:12:52.913Z,14.30
2019-05-02T17:15:22.010Z,14.30
2019-05-02T17:17:54.203Z,14.30
2019-05-02T17:20:22.177Z,14.30
2019-05-02T17:22:52.819Z,14.30
2019-05-02T17:25:21.442Z,14.30
2019-05-02T17:27:53.503Z,14.20
2019-05-02T17:30:22.442Z,14.20
2019-05-02T17:32:51.331Z,14.30
2019-05-02T17:35:22.128Z,14.30
2019-05-02T17:37:52.375Z,14.20
2019-05-02T17:40:25.782Z,14.30
2019-05-02T17:42:52.541Z,14.30
2019-05-02T17:45:23.917Z,14.20
2019-05-02T17:47:52.099Z,14.30
2019-05-02T17:50:22.059Z,14.20
2019-05-02T17:52:50.882Z,14.20
2019-05-02T17:55:21.438Z,14.20
2019-05-02T17:57:51.645Z,14.10
2019-05-02T18:00:21.606Z,14.20
2019-05-02T18:02:51.784Z,14.10
2019-05-02T18:05:21.699Z,14.10
2019-05-02T18:07:52.535Z,14.10
2019-05-02T18:10:23.060Z,14.10
2019-05-02T18:12:56.688Z,14.10
2019-05-02T18:15:22.809Z,14.10
2019-05-02T18:17:52.360Z,14.10
2019-05-02T18:20:21.949Z,14.10
2019-05-02T18:22:51.947Z,14.00
2019-05-02T18:25:24.036Z,14.00
2019-05-02T18:27:51.789Z,14.00
2019-05-02T18:30:26.775Z,13.90
2019-05-02T18:32:53.137Z,13.90
2019-05-02T18:35:23.455Z,13.90
2019-05-02T18:37:52.112Z,13.90
2019-05-02T18:40:27.873Z,13.90
2019-05-02T18:42:56.391Z,14.00
2019-05-02T18:45:27.362Z,13.90
2019-05-02T18:48:01.003Z,13.90
2019-05-02T18:50:44.447Z,13.90
2019-05-02T18:53:10.029Z,13.90
2019-05-02T18:55:39.116Z,13.90
2019-05-02T18:58:08.579Z,13.80
2019-05-02T19:00:39.614Z,13.80
2019-05-02T19:03:13.321Z,13.80
2019-05-02T19:05:39.808Z,13.90
2019-05-02T19:08:08.673Z,13.80
2019-05-02T19:10:42.485Z,13.80
2019-05-02T19:13:08.212Z,13.80
2019-05-02T19:15:39.567Z,13.80
2019-05-02T19:18:11.747Z,13.80
2019-05-02T19:20:57.341Z,13.80
2019-05-02T19:23:25.302Z,13.80
2019-05-02T19:25:54.216Z,13.80
2019-05-02T19:28:23.220Z,13.80
2019-05-02T19:30:52.103Z,13.80
2019-05-02T19:33:23.373Z,13.80
2019-05-02T19:35:52.581Z,13.80
2019-05-02T19:38:26.122Z,13.80
2019-05-02T19:40:52.426Z,13.80
2019-05-02T19:43:23.107Z,13.70
2019-05-02T19:45:54.019Z,13.70
2019-05-02T19:48:22.753Z,13.70
2019-05-02T19:50:51.918Z,13.70
2019-05-02T19:53:22.625Z,13.70
2019-05-02T19:55:52.070Z,13.70
2019-05-02T19:58:21.155Z,13.70
2019-05-02T20:00:49.837Z,13.60
2019-05-02T20:03:21.765Z,13.70
2019-05-02T20:05:51.785Z,13.70
2019-05-02T20:08:24.196Z,13.60
2019-05-02T20:10:56.634Z,13.60
2019-05-02T20:13:28.276Z,13.60
2019-05-02T20:15:52.273Z,13.60
2019-05-02T20:18:21.023Z,13.60
2019-05-02T20:20:51.867Z,13.60
2019-05-02T20:23:28.353Z,13.60
2019-05-02T20:25:52.178Z,13.60
2019-05-02T20:28:21.867Z,13.60
2019-05-02T20:30:52.676Z,13.60
2019-05-02T20:33:22.256Z,13.60
2019-05-02T20:35:52.870Z,13.50
2019-05-02T20:38:22.084Z,13.50
2019-05-02T20:40:52.184Z,13.50
2019-05-02T20:43:22.657Z,13.50
2019-05-02T20:45:52.786Z,13.50
2019-05-02T20:48:22.742Z,13.50
2019-05-02T20:50:52.050Z,13.50
2019-05-02T20:53:28.798Z,13.40
2019-05-02T20:55:52.408Z,13.40
2019-05-02T20:58:21.955Z,13.30
2019-05-02T21:01:05.002Z,13.30
2019-05-02T21:03:21.392Z,13.30
2019-05-02T21:05:51.938Z,13.30
2019-05-02T21:08:22.036Z,13.20
2019-05-02T21:10:52.279Z,13.20
2019-05-02T21:13:22.063Z,13.30
2019-05-02T21:15:52.359Z,13.20
2019-05-02T21:18:22.105Z,13.20
2019-05-02T21:20:52.599Z,13.30
2019-05-02T21:23:21.971Z,13.20
2019-05-02T21:25:52.488Z,13.30
2019-05-02T21:28:22.743Z,13.20
2019-05-02T21:30:52.400Z,13.20
2019-05-02T21:33:34.944Z,13.20
2019-05-02T21:36:04.660Z,13.10
2019-05-02T21:38:33.326Z,13.00
2019-05-02T21:41:02.324Z,12.70
2019-05-02T21:43:31.702Z,12.60
2019-05-02T21:46:02.261Z,12.60
2019-05-02T21:48:32.669Z,12.50
2019-05-02T21:51:02.572Z,12.30
2019-05-02T21:53:32.714Z,12.30
2019-05-02T21:56:02.826Z,12.10
2019-05-02T21:58:32.318Z,12.20
2019-05-02T22:01:03.686Z,12.20
2019-05-02T22:03:32.501Z,12.10
2019-05-02T22:06:01.265Z,12.10
2019-05-02T22:08:29.924Z,12.00
2019-05-02T22:10:58.536Z,11.90
2019-05-02T22:13:27.198Z,11.90
2019-05-02T22:15:55.805Z,11.90
2019-05-02T22:18:24.462Z,12.00
2019-05-02T22:20:53.070Z,11.90
2019-05-02T22:23:21.730Z,11.90
2019-05-02T22:25:50.338Z,11.90
2019-05-02T22:28:18.993Z,11.90
2019-05-02T22:30:47.605Z,11.90
2019-05-02T22:33:16.263Z,11.80
2019-05-02T22:35:44.986Z,11.70
2019-05-02T22:38:13.673Z,11.60
2019-05-02T22:40:42.334Z,11.60
2019-05-02T22:43:13.015Z,11.60
2019-05-02T22:45:41.768Z,11.40
2019-05-02T22:48:11.908Z,11.40
2019-05-02T22:50:41.873Z,11.40
2019-05-02T22:53:12.036Z,11.40
2019-05-02T22:55:42.545Z,11.30
2019-05-02T22:58:11.357Z,11.40
2019-05-02T23:00:41.647Z,11.40
2019-05-02T23:03:12.436Z,11.30
2019-05-02T23:05:42.133Z,11.30
2019-05-02T23:08:12.576Z,11.20
2019-05-02T23:10:41.681Z,11.20
2019-05-02T23:13:10.542Z,11.10
2019-05-02T23:15:39.152Z,11.10
2019-05-02T23:18:07.813Z,11.10
2019-05-02T23:20:36.494Z,11.00
2019-05-02T23:23:05.327Z,11.10
2019-05-02T23:25:33.985Z,11.00
2019-05-02T23:28:02.648Z,11.10
2019-05-02T23:30:31.758Z,11.10
2019-05-02T23:33:02.300Z,11.10
2019-05-02T23:35:32.006Z,11.10
2019-05-02T23:38:02.142Z,11.00
2019-05-02T23:40:30.837Z,10.90
2019-05-02T23:42:59.501Z,10.90
2019-05-02T23:45:28.111Z,10.90
2019-05-02T23:47:56.774Z,10.90
2019-05-02T23:50:25.388Z,10.90
2019-05-02T23:52:54.128Z,10.70
2019-05-02T23:55:22.978Z,10.80
2019-05-02T23:57:52.323Z,10.80
